sensor_id;sensor_type;location;lat;lon;timestamp;P1;durP1;ratioP1;P2;durP2;ratioP2
79790;SDS011;69278;52.220;5.172;2023-08-01T00:00:10;4.65;;;2.17;;
79790;SDS011;69278;52.220;5.172;2023-08-01T00:02:40;5.35;;;2.30;;
79790;SDS011;69278;52.220;5.172;2023-08-01T00:05:08;7.00;;;2.08;;
79790;SDS011;69278;52.220;5.172;2023-08-01T00:07:35;4.97;;;2.03;;
79790;SDS011;69278;52.220;5.172;2023-08-01T00:10:03;10.95;;;2.40;;
79790;SDS011;69278;52.220;5.172;2023-08-01T00:12:30;10.70;;;2.25;;
79790;SDS011;69278;52.220;5.172;2023-08-01T00:14:57;7.72;;;2.22;;
79790;SDS011;69278;52.220;5.172;2023-08-01T00:17:23;8.05;;;2.35;;
79790;SDS011;69278;52.220;5.172;2023-08-01T00:19:50;7.53;;;2.57;;
79790;SDS011;69278;52.220;5.172;2023-08-01T00:22:17;5.38;;;2.20;;
79790;SDS011;69278;52.220;5.172;2023-08-01T00:24:43;7.53;;;2.40;;
79790;SDS011;69278;52.220;5.172;2023-08-01T00:27:10;5.88;;;2.40;;
79790;SDS011;69278;52.220;5.172;2023-08-01T00:29:36;8.95;;;2.53;;
79790;SDS011;69278;52.220;5.172;2023-08-01T00:32:03;8.70;;;2.50;;
79790;SDS011;69278;52.220;5.172;2023-08-01T00:34:30;9.25;;;2.80;;
79790;SDS011;69278;52.220;5.172;2023-08-01T00:36:57;7.82;;;2.47;;
79790;SDS011;69278;52.220;5.172;2023-08-01T00:39:23;9.02;;;2.63;;
79790;SDS011;69278;52.220;5.172;2023-08-01T00:41:50;6.55;;;2.55;;
79790;SDS011;69278;52.220;5.172;2023-08-01T00:44:16;6.93;;;2.60;;
79790;SDS011;69278;52.220;5.172;2023-08-01T00:46:43;8.80;;;2.60;;
79790;SDS011;69278;52.220;5.172;2023-08-01T00:49:10;7.60;;;2.65;;
79790;SDS011;69278;52.220;5.172;2023-08-01T00:51:36;6.82;;;2.47;;
79790;SDS011;69278;52.220;5.172;2023-08-01T00:54:03;6.38;;;2.50;;
79790;SDS011;69278;52.220;5.172;2023-08-01T00:56:29;6.97;;;2.50;;
79790;SDS011;69278;52.220;5.172;2023-08-01T00:58:56;7.93;;;2.72;;
79790;SDS011;69278;52.220;5.172;2023-08-01T01:01:23;8.90;;;2.65;;
79790;SDS011;69278;52.220;5.172;2023-08-01T01:03:49;9.15;;;2.67;;
79790;SDS011;69278;52.220;5.172;2023-08-01T01:06:19;8.43;;;2.60;;
79790;SDS011;69278;52.220;5.172;2023-08-01T01:08:50;8.97;;;2.77;;
79790;SDS011;69278;52.220;5.172;2023-08-01T01:11:17;7.25;;;2.47;;
79790;SDS011;69278;52.220;5.172;2023-08-01T01:13:43;7.07;;;2.80;;
79790;SDS011;69278;52.220;5.172;2023-08-01T01:16:10;8.32;;;2.92;;
79790;SDS011;69278;52.220;5.172;2023-08-01T01:18:36;8.60;;;2.58;;
79790;SDS011;69278;52.220;5.172;2023-08-01T01:21:03;7.53;;;2.70;;
79790;SDS011;69278;52.220;5.172;2023-08-01T01:23:30;5.68;;;2.60;;
79790;SDS011;69278;52.220;5.172;2023-08-01T01:25:59;8.13;;;2.50;;
79790;SDS011;69278;52.220;5.172;2023-08-01T01:28:26;8.48;;;2.47;;
79790;SDS011;69278;52.220;5.172;2023-08-01T01:30:53;9.32;;;2.70;;
79790;SDS011;69278;52.220;5.172;2023-08-01T01:33:21;8.50;;;2.87;;
79790;SDS011;69278;52.220;5.172;2023-08-01T01:35:48;8.52;;;2.80;;
79790;SDS011;69278;52.220;5.172;2023-08-01T01:38:14;8.88;;;2.80;;
79790;SDS011;69278;52.220;5.172;2023-08-01T01:40:41;6.90;;;2.55;;
79790;SDS011;69278;52.220;5.172;2023-08-01T01:43:08;6.68;;;2.60;;
79790;SDS011;69278;52.220;5.172;2023-08-01T01:45:34;8.07;;;2.77;;
79790;SDS011;69278;52.220;5.172;2023-08-01T01:48:01;7.68;;;2.75;;
79790;SDS011;69278;52.220;5.172;2023-08-01T01:50:28;8.75;;;2.70;;
79790;SDS011;69278;52.220;5.172;2023-08-01T01:52:54;8.10;;;2.78;;
79790;SDS011;69278;52.220;5.172;2023-08-01T01:55:20;6.93;;;2.60;;
79790;SDS011;69278;52.220;5.172;2023-08-01T01:57:47;10.10;;;2.70;;
79790;SDS011;69278;52.220;5.172;2023-08-01T02:00:13;9.85;;;2.80;;
79790;SDS011;69278;52.220;5.172;2023-08-01T02:02:40;8.00;;;2.67;;
79790;SDS011;69278;52.220;5.172;2023-08-01T02:05:07;9.30;;;2.60;;
79790;SDS011;69278;52.220;5.172;2023-08-01T02:07:33;8.27;;;3.00;;
79790;SDS011;69278;52.220;5.172;2023-08-01T02:10:00;7.77;;;2.70;;
79790;SDS011;69278;52.220;5.172;2023-08-01T02:12:27;5.60;;;2.60;;
79790;SDS011;69278;52.220;5.172;2023-08-01T02:14:58;7.20;;;2.75;;
79790;SDS011;69278;52.220;5.172;2023-08-01T02:17:24;8.13;;;3.03;;
79790;SDS011;69278;52.220;5.172;2023-08-01T02:19:51;8.10;;;3.10;;
79790;SDS011;69278;52.220;5.172;2023-08-01T02:22:18;7.20;;;2.77;;
79790;SDS011;69278;52.220;5.172;2023-08-01T02:24:44;10.10;;;2.90;;
79790;SDS011;69278;52.220;5.172;2023-08-01T02:27:11;8.32;;;2.67;;
79790;SDS011;69278;52.220;5.172;2023-08-01T02:29:37;8.73;;;2.90;;
79790;SDS011;69278;52.220;5.172;2023-08-01T02:32:04;7.88;;;2.90;;
79790;SDS011;69278;52.220;5.172;2023-08-01T02:34:31;7.83;;;2.87;;
79790;SDS011;69278;52.220;5.172;2023-08-01T02:36:57;7.70;;;2.95;;
79790;SDS011;69278;52.220;5.172;2023-08-01T02:39:23;6.88;;;2.70;;
79790;SDS011;69278;52.220;5.172;2023-08-01T02:41:51;8.40;;;2.33;;
79790;SDS011;69278;52.220;5.172;2023-08-01T02:44:18;5.53;;;2.53;;
79790;SDS011;69278;52.220;5.172;2023-08-01T02:46:44;6.73;;;2.27;;
79790;SDS011;69278;52.220;5.172;2023-08-01T02:49:10;5.18;;;2.15;;
79790;SDS011;69278;52.220;5.172;2023-08-01T02:51:37;5.85;;;2.10;;
79790;SDS011;69278;52.220;5.172;2023-08-01T02:54:03;7.85;;;2.20;;
79790;SDS011;69278;52.220;5.172;2023-08-01T02:56:30;5.20;;;2.10;;
79790;SDS011;69278;52.220;5.172;2023-08-01T02:58:56;7.30;;;2.07;;
79790;SDS011;69278;52.220;5.172;2023-08-01T03:01:23;9.02;;;2.30;;
79790;SDS011;69278;52.220;5.172;2023-08-01T03:03:50;5.75;;;2.22;;
79790;SDS011;69278;52.220;5.172;2023-08-01T03:06:16;6.97;;;2.30;;
79790;SDS011;69278;52.220;5.172;2023-08-01T03:08:44;6.18;;;2.25;;
79790;SDS011;69278;52.220;5.172;2023-08-01T03:11:11;5.37;;;2.30;;
79790;SDS011;69278;52.220;5.172;2023-08-01T03:13:37;6.13;;;2.47;;
79790;SDS011;69278;52.220;5.172;2023-08-01T03:16:04;6.00;;;2.10;;
79790;SDS011;69278;52.220;5.172;2023-08-01T03:18:30;9.23;;;2.58;;
79790;SDS011;69278;52.220;5.172;2023-08-01T03:20:57;7.55;;;2.45;;
79790;SDS011;69278;52.220;5.172;2023-08-01T03:23:24;7.20;;;2.50;;
79790;SDS011;69278;52.220;5.172;2023-08-01T03:25:50;8.40;;;3.00;;
79790;SDS011;69278;52.220;5.172;2023-08-01T03:28:17;8.20;;;2.50;;
79790;SDS011;69278;52.220;5.172;2023-08-01T03:30:43;10.27;;;2.70;;
79790;SDS011;69278;52.220;5.172;2023-08-01T03:33:10;8.95;;;2.45;;
79790;SDS011;69278;52.220;5.172;2023-08-01T03:35:37;9.50;;;2.80;;
79790;SDS011;69278;52.220;5.172;2023-08-01T03:38:03;9.02;;;2.80;;
79790;SDS011;69278;52.220;5.172;2023-08-01T03:40:30;9.10;;;2.90;;
79790;SDS011;69278;52.220;5.172;2023-08-01T03:42:56;5.60;;;2.50;;
79790;SDS011;69278;52.220;5.172;2023-08-01T03:45:23;7.70;;;2.70;;
79790;SDS011;69278;52.220;5.172;2023-08-01T03:47:49;9.23;;;2.97;;
79790;SDS011;69278;52.220;5.172;2023-08-01T03:50:16;7.18;;;2.67;;
79790;SDS011;69278;52.220;5.172;2023-08-01T03:52:43;8.23;;;3.25;;
79790;SDS011;69278;52.220;5.172;2023-08-01T03:55:09;8.90;;;2.60;;
79790;SDS011;69278;52.220;5.172;2023-08-01T03:57:36;10.95;;;3.15;;
79790;SDS011;69278;52.220;5.172;2023-08-01T04:00:05;10.60;;;2.83;;
79790;SDS011;69278;52.220;5.172;2023-08-01T04:02:33;10.60;;;3.17;;
79790;SDS011;69278;52.220;5.172;2023-08-01T04:04:59;8.00;;;3.22;;
79790;SDS011;69278;52.220;5.172;2023-08-01T04:07:26;9.98;;;3.20;;
79790;SDS011;69278;52.220;5.172;2023-08-01T04:09:52;8.73;;;3.30;;
79790;SDS011;69278;52.220;5.172;2023-08-01T04:12:20;10.10;;;3.20;;
79790;SDS011;69278;52.220;5.172;2023-08-01T04:14:46;10.63;;;3.40;;
79790;SDS011;69278;52.220;5.172;2023-08-01T04:17:13;8.45;;;3.00;;
79790;SDS011;69278;52.220;5.172;2023-08-01T04:19:39;12.43;;;3.58;;
79790;SDS011;69278;52.220;5.172;2023-08-01T04:22:06;11.30;;;3.38;;
79790;SDS011;69278;52.220;5.172;2023-08-01T04:24:32;10.57;;;3.67;;
79790;SDS011;69278;52.220;5.172;2023-08-01T04:26:58;12.90;;;3.50;;
79790;SDS011;69278;52.220;5.172;2023-08-01T04:29:25;12.27;;;3.72;;
79790;SDS011;69278;52.220;5.172;2023-08-01T04:31:51;8.55;;;3.63;;
79790;SDS011;69278;52.220;5.172;2023-08-01T04:34:18;14.85;;;4.03;;
79790;SDS011;69278;52.220;5.172;2023-08-01T04:36:44;10.87;;;3.20;;
79790;SDS011;69278;52.220;5.172;2023-08-01T04:39:11;14.73;;;3.88;;
79790;SDS011;69278;52.220;5.172;2023-08-01T04:41:37;12.15;;;3.67;;
79790;SDS011;69278;52.220;5.172;2023-08-01T04:44:04;12.48;;;3.63;;
79790;SDS011;69278;52.220;5.172;2023-08-01T04:46:30;11.95;;;3.40;;
79790;SDS011;69278;52.220;5.172;2023-08-01T04:48:57;11.40;;;3.50;;
79790;SDS011;69278;52.220;5.172;2023-08-01T04:51:25;13.52;;;3.35;;
79790;SDS011;69278;52.220;5.172;2023-08-01T04:53:51;10.13;;;3.60;;
79790;SDS011;69278;52.220;5.172;2023-08-01T04:56:18;13.85;;;3.45;;
79790;SDS011;69278;52.220;5.172;2023-08-01T04:58:44;10.55;;;3.50;;
79790;SDS011;69278;52.220;5.172;2023-08-01T05:01:11;12.00;;;3.80;;
79790;SDS011;69278;52.220;5.172;2023-08-01T05:03:37;16.13;;;3.65;;
79790;SDS011;69278;52.220;5.172;2023-08-01T05:06:04;10.70;;;3.60;;
79790;SDS011;69278;52.220;5.172;2023-08-01T05:08:30;15.00;;;3.95;;
79790;SDS011;69278;52.220;5.172;2023-08-01T05:10:57;12.73;;;3.53;;
79790;SDS011;69278;52.220;5.172;2023-08-01T05:13:23;12.37;;;3.50;;
79790;SDS011;69278;52.220;5.172;2023-08-01T05:15:50;12.43;;;3.70;;
79790;SDS011;69278;52.220;5.172;2023-08-01T05:18:16;12.48;;;3.38;;
79790;SDS011;69278;52.220;5.172;2023-08-01T05:20:43;12.75;;;3.70;;
79790;SDS011;69278;52.220;5.172;2023-08-01T05:23:10;15.00;;;3.53;;
79790;SDS011;69278;52.220;5.172;2023-08-01T05:25:36;12.60;;;3.23;;
79790;SDS011;69278;52.220;5.172;2023-08-01T05:28:03;13.00;;;3.30;;
79790;SDS011;69278;52.220;5.172;2023-08-01T05:30:29;11.70;;;2.78;;
79790;SDS011;69278;52.220;5.172;2023-08-01T05:32:56;12.93;;;3.13;;
79790;SDS011;69278;52.220;5.172;2023-08-01T05:35:22;9.32;;;3.08;;
79790;SDS011;69278;52.220;5.172;2023-08-01T05:37:49;10.10;;;3.20;;
79790;SDS011;69278;52.220;5.172;2023-08-01T05:40:15;11.45;;;3.05;;
79790;SDS011;69278;52.220;5.172;2023-08-01T05:42:42;12.80;;;3.10;;
79790;SDS011;69278;52.220;5.172;2023-08-01T05:45:08;8.65;;;2.80;;
79790;SDS011;69278;52.220;5.172;2023-08-01T05:47:37;11.73;;;3.00;;
79790;SDS011;69278;52.220;5.172;2023-08-01T05:50:06;10.37;;;2.87;;
79790;SDS011;69278;52.220;5.172;2023-08-01T05:52:34;7.25;;;2.55;;
79790;SDS011;69278;52.220;5.172;2023-08-01T05:55:00;9.85;;;2.92;;
79790;SDS011;69278;52.220;5.172;2023-08-01T05:57:27;7.80;;;2.92;;
79790;SDS011;69278;52.220;5.172;2023-08-01T05:59:53;9.88;;;2.95;;
79790;SDS011;69278;52.220;5.172;2023-08-01T06:02:20;8.00;;;3.27;;
79790;SDS011;69278;52.220;5.172;2023-08-01T06:04:47;9.32;;;2.97;;
79790;SDS011;69278;52.220;5.172;2023-08-01T06:07:13;13.15;;;3.03;;
79790;SDS011;69278;52.220;5.172;2023-08-01T06:09:40;8.45;;;2.63;;
79790;SDS011;69278;52.220;5.172;2023-08-01T06:12:06;10.90;;;2.70;;
79790;SDS011;69278;52.220;5.172;2023-08-01T06:14:33;8.03;;;2.50;;
79790;SDS011;69278;52.220;5.172;2023-08-01T06:16:59;9.18;;;2.58;;
79790;SDS011;69278;52.220;5.172;2023-08-01T06:19:26;5.32;;;2.42;;
79790;SDS011;69278;52.220;5.172;2023-08-01T06:21:52;8.82;;;2.60;;
79790;SDS011;69278;52.220;5.172;2023-08-01T06:24:19;7.05;;;2.33;;
79790;SDS011;69278;52.220;5.172;2023-08-01T06:26:45;7.77;;;2.67;;
79790;SDS011;69278;52.220;5.172;2023-08-01T06:29:12;6.50;;;2.50;;
79790;SDS011;69278;52.220;5.172;2023-08-01T06:31:38;9.82;;;2.50;;
79790;SDS011;69278;52.220;5.172;2023-08-01T06:34:05;5.57;;;2.20;;
79790;SDS011;69278;52.220;5.172;2023-08-01T06:36:31;6.85;;;2.25;;
79790;SDS011;69278;52.220;5.172;2023-08-01T06:38:58;5.27;;;2.30;;
79790;SDS011;69278;52.220;5.172;2023-08-01T06:41:25;7.60;;;2.30;;
79790;SDS011;69278;52.220;5.172;2023-08-01T06:43:51;8.27;;;2.38;;
79790;SDS011;69278;52.220;5.172;2023-08-01T06:46:18;6.45;;;1.95;;
79790;SDS011;69278;52.220;5.172;2023-08-01T06:48:44;5.32;;;2.25;;
79790;SDS011;69278;52.220;5.172;2023-08-01T06:51:11;6.43;;;2.23;;
79790;SDS011;69278;52.220;5.172;2023-08-01T06:53:37;5.47;;;1.60;;
79790;SDS011;69278;52.220;5.172;2023-08-01T06:56:04;6.97;;;2.03;;
79790;SDS011;69278;52.220;5.172;2023-08-01T06:58:30;10.10;;;2.40;;
79790;SDS011;69278;52.220;5.172;2023-08-01T07:00:57;4.93;;;1.75;;
79790;SDS011;69278;52.220;5.172;2023-08-01T07:03:23;4.23;;;1.70;;
79790;SDS011;69278;52.220;5.172;2023-08-01T07:05:50;5.80;;;2.13;;
79790;SDS011;69278;52.220;5.172;2023-08-01T07:08:18;5.85;;;2.30;;
79790;SDS011;69278;52.220;5.172;2023-08-01T07:10:45;6.15;;;2.22;;
79790;SDS011;69278;52.220;5.172;2023-08-01T07:13:11;5.90;;;1.90;;
79790;SDS011;69278;52.220;5.172;2023-08-01T07:15:38;4.63;;;1.97;;
79790;SDS011;69278;52.220;5.172;2023-08-01T07:18:04;7.45;;;1.85;;
79790;SDS011;69278;52.220;5.172;2023-08-01T07:20:31;8.25;;;2.30;;
79790;SDS011;69278;52.220;5.172;2023-08-01T07:22:58;8.25;;;2.28;;
79790;SDS011;69278;52.220;5.172;2023-08-01T07:25:24;5.35;;;2.60;;
79790;SDS011;69278;52.220;5.172;2023-08-01T07:27:51;9.50;;;2.40;;
79790;SDS011;69278;52.220;5.172;2023-08-01T07:30:17;6.68;;;2.50;;
79790;SDS011;69278;52.220;5.172;2023-08-01T07:32:44;9.35;;;2.33;;
79790;SDS011;69278;52.220;5.172;2023-08-01T07:35:10;7.75;;;2.90;;
79790;SDS011;69278;52.220;5.172;2023-08-01T07:37:37;8.85;;;2.60;;
79790;SDS011;69278;52.220;5.172;2023-08-01T07:40:07;9.07;;;3.00;;
79790;SDS011;69278;52.220;5.172;2023-08-01T07:42:34;8.40;;;2.78;;
79790;SDS011;69278;52.220;5.172;2023-08-01T07:45:01;8.93;;;2.95;;
79790;SDS011;69278;52.220;5.172;2023-08-01T07:47:27;8.40;;;2.85;;
79790;SDS011;69278;52.220;5.172;2023-08-01T07:49:54;7.57;;;3.13;;
79790;SDS011;69278;52.220;5.172;2023-08-01T07:52:20;8.47;;;2.70;;
79790;SDS011;69278;52.220;5.172;2023-08-01T07:54:47;13.73;;;2.67;;
79790;SDS011;69278;52.220;5.172;2023-08-01T07:57:13;6.93;;;2.38;;
79790;SDS011;69278;52.220;5.172;2023-08-01T07:59:39;9.43;;;2.63;;
79790;SDS011;69278;52.220;5.172;2023-08-01T08:02:06;7.05;;;2.30;;
79790;SDS011;69278;52.220;5.172;2023-08-01T08:04:32;8.43;;;2.40;;
79790;SDS011;69278;52.220;5.172;2023-08-01T08:06:59;7.60;;;2.42;;
79790;SDS011;69278;52.220;5.172;2023-08-01T08:09:26;8.27;;;2.50;;
79790;SDS011;69278;52.220;5.172;2023-08-01T08:11:53;10.20;;;2.53;;
79790;SDS011;69278;52.220;5.172;2023-08-01T08:14:19;10.40;;;2.47;;
79790;SDS011;69278;52.220;5.172;2023-08-01T08:16:47;6.77;;;2.60;;
79790;SDS011;69278;52.220;5.172;2023-08-01T08:19:14;8.70;;;2.42;;
79790;SDS011;69278;52.220;5.172;2023-08-01T08:21:41;5.32;;;2.10;;
79790;SDS011;69278;52.220;5.172;2023-08-01T08:24:07;8.80;;;2.28;;
79790;SDS011;69278;52.220;5.172;2023-08-01T08:26:34;6.00;;;2.20;;
79790;SDS011;69278;52.220;5.172;2023-08-01T08:29:04;7.27;;;2.27;;
79790;SDS011;69278;52.220;5.172;2023-08-01T08:31:31;6.13;;;2.20;;
79790;SDS011;69278;52.220;5.172;2023-08-01T08:33:57;7.85;;;2.50;;
79790;SDS011;69278;52.220;5.172;2023-08-01T08:36:24;6.47;;;2.10;;
79790;SDS011;69278;52.220;5.172;2023-08-01T08:38:50;6.93;;;2.03;;
79790;SDS011;69278;52.220;5.172;2023-08-01T08:41:20;8.97;;;2.17;;
79790;SDS011;69278;52.220;5.172;2023-08-01T08:43:47;9.48;;;2.22;;
79790;SDS011;69278;52.220;5.172;2023-08-01T08:46:15;6.03;;;1.95;;
79790;SDS011;69278;52.220;5.172;2023-08-01T08:48:42;5.85;;;1.95;;
79790;SDS011;69278;52.220;5.172;2023-08-01T08:51:12;11.43;;;2.20;;
79790;SDS011;69278;52.220;5.172;2023-08-01T08:53:39;5.40;;;2.00;;
79790;SDS011;69278;52.220;5.172;2023-08-01T08:56:08;8.05;;;2.33;;
79790;SDS011;69278;52.220;5.172;2023-08-01T08:58:36;4.53;;;1.80;;
79790;SDS011;69278;52.220;5.172;2023-08-01T09:01:05;8.82;;;2.40;;
79790;SDS011;69278;52.220;5.172;2023-08-01T09:03:34;5.70;;;2.00;;
79790;SDS011;69278;52.220;5.172;2023-08-01T09:06:16;8.97;;;2.00;;
79790;SDS011;69278;52.220;5.172;2023-08-01T09:08:46;6.65;;;1.60;;
79790;SDS011;69278;52.220;5.172;2023-08-01T09:11:18;7.07;;;1.80;;
79790;SDS011;69278;52.220;5.172;2023-08-01T09:13:44;5.03;;;1.83;;
79790;SDS011;69278;52.220;5.172;2023-08-01T09:16:11;3.55;;;1.70;;
79790;SDS011;69278;52.220;5.172;2023-08-01T09:18:48;5.67;;;2.13;;
79790;SDS011;69278;52.220;5.172;2023-08-01T09:21:19;6.82;;;1.80;;
79790;SDS011;69278;52.220;5.172;2023-08-01T09:23:46;5.95;;;2.08;;
79790;SDS011;69278;52.220;5.172;2023-08-01T09:26:16;7.00;;;2.30;;
79790;SDS011;69278;52.220;5.172;2023-08-01T09:28:44;6.55;;;2.08;;
79790;SDS011;69278;52.220;5.172;2023-08-01T09:31:31;4.53;;;1.60;;
79790;SDS011;69278;52.220;5.172;2023-08-01T09:34:00;10.40;;;2.08;;
79790;SDS011;69278;52.220;5.172;2023-08-01T09:36:27;9.98;;;2.55;;
79790;SDS011;69278;52.220;5.172;2023-08-01T09:38:57;5.68;;;2.00;;
79790;SDS011;69278;52.220;5.172;2023-08-01T09:41:26;7.18;;;1.90;;
79790;SDS011;69278;52.220;5.172;2023-08-01T09:43:52;6.03;;;1.90;;
79790;SDS011;69278;52.220;5.172;2023-08-01T09:46:19;4.50;;;1.80;;
79790;SDS011;69278;52.220;5.172;2023-08-01T09:48:46;5.25;;;1.50;;
79790;SDS011;69278;52.220;5.172;2023-08-01T09:51:16;9.48;;;2.35;;
79790;SDS011;69278;52.220;5.172;2023-08-01T09:53:55;6.10;;;1.80;;
79790;SDS011;69278;52.220;5.172;2023-08-01T09:56:23;5.43;;;1.77;;
79790;SDS011;69278;52.220;5.172;2023-08-01T09:58:52;7.45;;;2.28;;
79790;SDS011;69278;52.220;5.172;2023-08-01T10:01:20;9.13;;;1.80;;
79790;SDS011;69278;52.220;5.172;2023-08-01T10:03:49;6.25;;;2.00;;
79790;SDS011;69278;52.220;5.172;2023-08-01T10:06:18;12.07;;;1.75;;
79790;SDS011;69278;52.220;5.172;2023-08-01T10:08:46;5.73;;;1.80;;
79790;SDS011;69278;52.220;5.172;2023-08-01T10:11:17;8.90;;;2.00;;
79790;SDS011;69278;52.220;5.172;2023-08-01T10:13:45;6.32;;;1.85;;
79790;SDS011;69278;52.220;5.172;2023-08-01T10:16:13;4.22;;;1.85;;
79790;SDS011;69278;52.220;5.172;2023-08-01T10:18:40;5.78;;;1.75;;
79790;SDS011;69278;52.220;5.172;2023-08-01T10:21:09;4.17;;;1.97;;
79790;SDS011;69278;52.220;5.172;2023-08-01T10:23:41;6.10;;;1.90;;
79790;SDS011;69278;52.220;5.172;2023-08-01T10:26:10;6.60;;;1.92;;
79790;SDS011;69278;52.220;5.172;2023-08-01T10:28:38;7.05;;;1.83;;
79790;SDS011;69278;52.220;5.172;2023-08-01T10:31:07;4.55;;;1.70;;
79790;SDS011;69278;52.220;5.172;2023-08-01T10:33:38;6.13;;;2.00;;
79790;SDS011;69278;52.220;5.172;2023-08-01T10:36:13;5.47;;;1.80;;
79790;SDS011;69278;52.220;5.172;2023-08-01T10:38:50;4.07;;;1.42;;
79790;SDS011;69278;52.220;5.172;2023-08-01T10:41:30;5.38;;;1.65;;
79790;SDS011;69278;52.220;5.172;2023-08-01T10:44:14;7.70;;;1.80;;
79790;SDS011;69278;52.220;5.172;2023-08-01T10:46:47;8.67;;;1.80;;
79790;SDS011;69278;52.220;5.172;2023-08-01T10:49:35;5.20;;;1.60;;
79790;SDS011;69278;52.220;5.172;2023-08-01T10:55:00;5.88;;;2.00;;
79790;SDS011;69278;52.220;5.172;2023-08-01T10:57:31;5.35;;;2.03;;
79790;SDS011;69278;52.220;5.172;2023-08-01T10:59:58;8.40;;;2.03;;
79790;SDS011;69278;52.220;5.172;2023-08-01T11:02:26;7.15;;;1.88;;
79790;SDS011;69278;52.220;5.172;2023-08-01T11:05:03;7.00;;;2.10;;
79790;SDS011;69278;52.220;5.172;2023-08-01T11:07:32;8.23;;;2.10;;
79790;SDS011;69278;52.220;5.172;2023-08-01T11:12:30;7.67;;;1.70;;
79790;SDS011;69278;52.220;5.172;2023-08-01T11:15:00;6.72;;;1.77;;
79790;SDS011;69278;52.220;5.172;2023-08-01T11:17:26;5.93;;;1.95;;
79790;SDS011;69278;52.220;5.172;2023-08-01T11:20:00;8.25;;;2.85;;
79790;SDS011;69278;52.220;5.172;2023-08-01T11:22:28;8.02;;;2.00;;
79790;SDS011;69278;52.220;5.172;2023-08-01T11:24:57;6.10;;;2.00;;
79790;SDS011;69278;52.220;5.172;2023-08-01T11:27:24;6.35;;;2.28;;
79790;SDS011;69278;52.220;5.172;2023-08-01T11:29:52;6.47;;;1.80;;
79790;SDS011;69278;52.220;5.172;2023-08-01T11:32:23;5.13;;;1.70;;
79790;SDS011;69278;52.220;5.172;2023-08-01T11:34:59;5.30;;;1.55;;
79790;SDS011;69278;52.220;5.172;2023-08-01T11:37:26;6.17;;;1.80;;
79790;SDS011;69278;52.220;5.172;2023-08-01T11:39:53;5.00;;;1.65;;
79790;SDS011;69278;52.220;5.172;2023-08-01T11:42:21;4.95;;;1.33;;
79790;SDS011;69278;52.220;5.172;2023-08-01T11:44:47;7.35;;;1.75;;
79790;SDS011;69278;52.220;5.172;2023-08-01T11:47:14;5.70;;;1.70;;
79790;SDS011;69278;52.220;5.172;2023-08-01T11:49:48;6.97;;;1.57;;
79790;SDS011;69278;52.220;5.172;2023-08-01T11:52:25;4.38;;;1.70;;
79790;SDS011;69278;52.220;5.172;2023-08-01T11:54:53;3.80;;;1.65;;
79790;SDS011;69278;52.220;5.172;2023-08-01T11:57:21;3.53;;;1.58;;
79790;SDS011;69278;52.220;5.172;2023-08-01T11:59:48;4.32;;;1.48;;
79790;SDS011;69278;52.220;5.172;2023-08-01T12:02:25;5.87;;;1.93;;
79790;SDS011;69278;52.220;5.172;2023-08-01T12:04:53;5.80;;;2.05;;
79790;SDS011;69278;52.220;5.172;2023-08-01T12:07:20;6.78;;;1.60;;
79790;SDS011;69278;52.220;5.172;2023-08-01T12:10:00;7.38;;;1.80;;
79790;SDS011;69278;52.220;5.172;2023-08-01T12:12:27;4.18;;;1.48;;
79790;SDS011;69278;52.220;5.172;2023-08-01T12:14:54;5.50;;;1.30;;
79790;SDS011;69278;52.220;5.172;2023-08-01T12:17:25;5.20;;;1.60;;
79790;SDS011;69278;52.220;5.172;2023-08-01T12:19:52;5.80;;;1.90;;
79790;SDS011;69278;52.220;5.172;2023-08-01T12:22:18;8.05;;;1.80;;
79790;SDS011;69278;52.220;5.172;2023-08-01T12:24:45;5.05;;;1.63;;
79790;SDS011;69278;52.220;5.172;2023-08-01T12:27:11;7.57;;;1.73;;
79790;SDS011;69278;52.220;5.172;2023-08-01T12:29:37;3.53;;;1.60;;
79790;SDS011;69278;52.220;5.172;2023-08-01T12:32:04;4.55;;;1.58;;
79790;SDS011;69278;52.220;5.172;2023-08-01T12:34:33;5.95;;;1.60;;
79790;SDS011;69278;52.220;5.172;2023-08-01T12:37:00;6.63;;;1.60;;
79790;SDS011;69278;52.220;5.172;2023-08-01T12:39:26;6.23;;;2.33;;
79790;SDS011;69278;52.220;5.172;2023-08-01T12:41:53;4.82;;;1.45;;
79790;SDS011;69278;52.220;5.172;2023-08-01T12:44:20;7.05;;;1.60;;
79790;SDS011;69278;52.220;5.172;2023-08-01T12:46:47;6.07;;;1.60;;
79790;SDS011;69278;52.220;5.172;2023-08-01T12:49:14;4.93;;;1.40;;
79790;SDS011;69278;52.220;5.172;2023-08-01T12:51:40;5.47;;;1.50;;
79790;SDS011;69278;52.220;5.172;2023-08-01T12:54:07;3.75;;;1.60;;
79790;SDS011;69278;52.220;5.172;2023-08-01T12:56:33;3.95;;;1.50;;
79790;SDS011;69278;52.220;5.172;2023-08-01T12:59:00;3.30;;;1.50;;
79790;SDS011;69278;52.220;5.172;2023-08-01T13:01:26;4.28;;;1.60;;
79790;SDS011;69278;52.220;5.172;2023-08-01T13:03:53;4.67;;;1.60;;
79790;SDS011;69278;52.220;5.172;2023-08-01T13:06:19;5.57;;;1.90;;
79790;SDS011;69278;52.220;5.172;2023-08-01T13:08:46;5.70;;;1.90;;
79790;SDS011;69278;52.220;5.172;2023-08-01T13:11:13;6.03;;;1.90;;
79790;SDS011;69278;52.220;5.172;2023-08-01T13:13:40;3.75;;;1.77;;
79790;SDS011;69278;52.220;5.172;2023-08-01T13:16:07;4.37;;;1.63;;
79790;SDS011;69278;52.220;5.172;2023-08-01T13:18:34;4.90;;;1.80;;
79790;SDS011;69278;52.220;5.172;2023-08-01T13:21:00;7.10;;;2.08;;
79790;SDS011;69278;52.220;5.172;2023-08-01T13:23:27;3.70;;;1.90;;
79790;SDS011;69278;52.220;5.172;2023-08-01T13:25:53;6.90;;;2.35;;
79790;SDS011;69278;52.220;5.172;2023-08-01T13:28:23;11.73;;;1.90;;
79790;SDS011;69278;52.220;5.172;2023-08-01T13:30:50;6.22;;;1.52;;
79790;SDS011;69278;52.220;5.172;2023-08-01T13:33:16;5.18;;;1.88;;
79790;SDS011;69278;52.220;5.172;2023-08-01T13:35:43;5.22;;;1.60;;
79790;SDS011;69278;52.220;5.172;2023-08-01T13:38:09;5.03;;;1.90;;
79790;SDS011;69278;52.220;5.172;2023-08-01T13:40:36;5.97;;;1.77;;
79790;SDS011;69278;52.220;5.172;2023-08-01T13:43:02;5.10;;;1.50;;
79790;SDS011;69278;52.220;5.172;2023-08-01T13:45:32;5.20;;;1.77;;
79790;SDS011;69278;52.220;5.172;2023-08-01T13:47:58;5.07;;;1.65;;
79790;SDS011;69278;52.220;5.172;2023-08-01T13:50:25;3.83;;;1.30;;
79790;SDS011;69278;52.220;5.172;2023-08-01T13:52:54;6.27;;;2.07;;
79790;SDS011;69278;52.220;5.172;2023-08-01T13:55:21;6.03;;;2.10;;
79790;SDS011;69278;52.220;5.172;2023-08-01T13:57:47;6.28;;;2.00;;
79790;SDS011;69278;52.220;5.172;2023-08-01T14:00:14;5.93;;;1.95;;
79790;SDS011;69278;52.220;5.172;2023-08-01T14:02:41;6.55;;;2.00;;
79790;SDS011;69278;52.220;5.172;2023-08-01T14:05:08;7.40;;;2.20;;
79790;SDS011;69278;52.220;5.172;2023-08-01T14:07:35;8.57;;;2.30;;
79790;SDS011;69278;52.220;5.172;2023-08-01T14:10:06;6.85;;;2.30;;
79790;SDS011;69278;52.220;5.172;2023-08-01T14:12:33;5.07;;;1.92;;
79790;SDS011;69278;52.220;5.172;2023-08-01T14:14:59;6.90;;;2.40;;
79790;SDS011;69278;52.220;5.172;2023-08-01T14:17:26;7.07;;;1.90;;
79790;SDS011;69278;52.220;5.172;2023-08-01T14:19:52;5.72;;;1.80;;
79790;SDS011;69278;52.220;5.172;2023-08-01T14:22:19;6.40;;;1.77;;
79790;SDS011;69278;52.220;5.172;2023-08-01T14:24:45;6.43;;;2.30;;
79790;SDS011;69278;52.220;5.172;2023-08-01T14:27:12;5.25;;;1.60;;
79790;SDS011;69278;52.220;5.172;2023-08-01T14:29:38;7.70;;;1.80;;
79790;SDS011;69278;52.220;5.172;2023-08-01T14:32:05;5.15;;;1.70;;
79790;SDS011;69278;52.220;5.172;2023-08-01T14:34:32;6.25;;;1.80;;
79790;SDS011;69278;52.220;5.172;2023-08-01T14:36:58;5.35;;;1.98;;
79790;SDS011;69278;52.220;5.172;2023-08-01T14:39:24;5.82;;;1.90;;
79790;SDS011;69278;52.220;5.172;2023-08-01T14:41:51;8.07;;;1.77;;
79790;SDS011;69278;52.220;5.172;2023-08-01T14:44:20;5.10;;;1.88;;
79790;SDS011;69278;52.220;5.172;2023-08-01T14:46:47;4.95;;;1.65;;
79790;SDS011;69278;52.220;5.172;2023-08-01T14:49:13;6.90;;;1.70;;
79790;SDS011;69278;52.220;5.172;2023-08-01T14:51:40;3.65;;;1.70;;